createdAt,value
2023-12-11T00:00:54.000Z,94693.59
2023-12-11T00:01:57.040Z,94690.00
2023-12-11T00:02:59.905Z,94692.84
2023-12-11T00:04:02.876Z,94683.44
2023-12-11T00:05:05.855Z,94684.66
2023-12-11T00:06:09.484Z,94679.94
2023-12-11T00:07:12.888Z,94696.66
2023-12-11T00:08:15.802Z,94693.59
2023-12-11T00:09:17.826Z,94682.59
2023-12-11T00:10:20.716Z,94687.28
2023-12-11T00:11:22.661Z,94690.75
2023-12-11T00:12:25.580Z,94685.31
2023-12-11T00:13:27.581Z,94684.00
2023-12-11T00:14:30.498Z,94688.25
2023-12-11T00:15:32.434Z,94697.97
2023-12-11T00:16:35.409Z,94687.06
2023-12-11T00:17:37.676Z,94697.63
2023-12-11T00:18:39.898Z,94707.00
2023-12-11T00:19:43.239Z,94687.91
2023-12-11T00:20:45.284Z,94708.09
2023-12-11T00:21:48.260Z,94703.09
2023-12-11T00:22:51.897Z,94705.81
2023-12-11T00:23:55.588Z,94692.50
2023-12-11T00:24:57.548Z,94702.44
2023-12-11T00:25:59.595Z,94690.63
2023-12-11T00:27:02.549Z,94697.31
2023-12-11T00:28:04.924Z,94705.50
2023-12-11T00:29:07.931Z,94699.59
2023-12-11T00:30:10.540Z,94696.75
2023-12-11T00:31:13.891Z,94709.22
2023-12-11T00:32:15.851Z,94697.31
2023-12-11T00:33:18.930Z,94703.53
2023-12-11T00:34:21.043Z,94703.94
2023-12-11T00:35:24.121Z,94701.88
2023-12-11T00:36:26.365Z,94704.94
2023-12-11T00:37:29.524Z,94702.22
2023-12-11T00:38:32.948Z,94692.38
2023-12-11T00:39:35.945Z,94705.25
2023-12-11T00:40:37.882Z,94707.56
2023-12-11T00:41:40.812Z,94701.78
2023-12-11T00:42:44.424Z,94709.50
2023-12-11T00:43:47.426Z,94708.00
2023-12-11T00:44:49.450Z,94712.13
2023-12-11T00:45:52.440Z,94698.81
2023-12-11T00:46:54.440Z,94699.81
2023-12-11T00:47:57.436Z,94694.34
2023-12-11T00:48:59.494Z,94703.19
2023-12-11T00:50:05.368Z,94693.81
2023-12-11T00:51:15.776Z,94704.94
2023-12-11T00:52:18.905Z,94684.84
2023-12-11T00:53:20.895Z,94701.88
2023-12-11T00:54:25.362Z,94706.03
2023-12-11T00:55:27.316Z,94702.75
2023-12-11T00:56:30.398Z,94707.00
2023-12-11T00:57:32.600Z,94722.63
2023-12-11T00:58:35.734Z,94711.72
2023-12-11T00:59:37.764Z,94726.00
2023-12-11T01:00:40.782Z,94721.75
2023-12-11T01:01:43.252Z,94711.72
2023-12-11T01:02:46.370Z,94726.09
2023-12-11T01:03:48.578Z,94733.88
2023-12-11T01:04:51.711Z,94729.59
2023-12-11T01:05:53.741Z,94735.81
2023-12-11T01:06:56.718Z,94735.81
2023-12-11T01:07:58.734Z,94735.72
2023-12-11T01:09:01.679Z,94749.03
2023-12-11T01:10:05.719Z,94741.81
2023-12-11T01:11:09.905Z,94732.31
2023-12-11T01:12:11.968Z,94735.06
2023-12-11T01:13:14.940Z,94745.53
2023-12-11T01:14:16.885Z,94742.81
2023-12-11T01:15:19.871Z,94737.03
2023-12-11T01:16:21.933Z,94753.16
2023-12-11T01:17:38.119Z,94750.44
2023-12-11T01:18:43.149Z,94758.63
2023-12-11T01:19:46.169Z,94765.50
2023-12-11T01:20:48.182Z,94749.13
2023-12-11T01:21:51.171Z,94760.81
2023-12-11T01:22:53.780Z,94757.75
2023-12-11T01:23:58.158Z,94759.28
2023-12-11T01:25:03.629Z,94755.78
2023-12-11T01:26:08.324Z,94763.97
2023-12-11T01:27:10.489Z,94757.09
2023-12-11T01:28:13.537Z,94766.16
2023-12-11T01:29:15.475Z,94770.31
2023-12-11T01:30:18.497Z,94773.47
2023-12-11T01:31:20.459Z,94775.88
2023-12-11T01:32:22.351Z,94781.31
2023-12-11T01:33:25.384Z,94784.38
2023-12-11T01:34:27.473Z,94784.38
2023-12-11T01:35:29.695Z,94790.94
2023-12-11T01:36:32.684Z,94790.94
2023-12-11T01:37:34.590Z,94785.25
2023-12-11T01:38:37.549Z,94787.53
2023-12-11T01:39:39.598Z,94795.28
2023-12-11T01:40:42.516Z,94780.44
2023-12-11T01:41:45.925Z,94784.38
2023-12-11T01:42:48.885Z,94782.75
2023-12-11T01:43:53.865Z,94782.06
2023-12-11T01:44:56.743Z,94774.69
2023-12-11T01:46:04.479Z,94779.69
2023-12-11T01:47:07.964Z,94779.69
2023-12-11T01:48:10.803Z,94777.16
2023-12-11T01:49:14.738Z,94768.88
2023-12-11T01:50:16.788Z,94770.41
2023-12-11T01:51:20.325Z,94777.41
2023-12-11T01:52:23.340Z,94778.91
2023-12-11T01:53:27.302Z,94785.13
2023-12-11T01:54:29.375Z,94781.22
2023-12-11T01:55:33.927Z,94780.78
2023-12-11T01:56:36.946Z,94774.88
2023-12-11T01:57:41.235Z,94775.31
2023-12-11T01:58:43.589Z,94775.66
2023-12-11T01:59:49.370Z,94778.03
2023-12-11T02:00:51.942Z,94777.19
2023-12-11T02:01:56.110Z,94774.47
2023-12-11T02:02:58.168Z,94770.94
2023-12-11T02:04:01.229Z,94762.00
2023-12-11T02:05:03.526Z,94760.81
2023-12-11T02:06:06.868Z,94758.09
2023-12-11T02:07:08.869Z,94749.91
2023-12-11T02:08:11.382Z,94759.59
2023-12-11T02:09:14.909Z,94758.44
2023-12-11T02:10:17.184Z,94768.53
2023-12-11T02:11:21.476Z,94769.00
2023-12-11T02:12:23.545Z,94771.72
2023-12-11T02:13:27.934Z,94767.78
2023-12-11T02:14:29.922Z,94777.19
2023-12-11T02:15:39.843Z,94796.28
2023-12-11T02:16:41.918Z,94811.88
2023-12-11T02:17:45.008Z,94825.97
2023-12-11T02:18:47.197Z,94816.22
2023-12-11T02:19:50.258Z,94810.13
2023-12-11T02:20:52.256Z,94804.34
2023-12-11T02:21:56.009Z,94805.53
2023-12-11T02:23:01.627Z,94799.66
2023-12-11T02:24:10.629Z,94790.72
2023-12-11T02:25:13.253Z,94792.34
2023-12-11T02:26:17.972Z,94786.44
2023-12-11T02:27:21.644Z,94783.72
2023-12-11T02:28:23.582Z,94779.00
2023-12-11T02:29:25.786Z,94780.22
2023-12-11T02:30:30.438Z,94783.72
2023-12-11T02:31:32.567Z,94788.75
2023-12-11T02:32:35.523Z,94793.53
2023-12-11T02:33:37.978Z,94790.72
2023-12-11T02:34:41.015Z,94789.50
2023-12-11T02:35:44.948Z,94786.78
2023-12-11T02:36:49.232Z,94788.31
2023-12-11T02:37:51.219Z,94777.41
2023-12-11T02:38:54.318Z,94776.19
2023-12-11T02:39:56.387Z,94784.38
2023-12-11T02:40:58.432Z,94780.44
2023-12-11T02:42:02.722Z,94790.59
2023-12-11T02:43:04.994Z,94799.53
2023-12-11T02:44:07.948Z,94797.59
2023-12-11T02:45:10.648Z,94797.59
2023-12-11T02:46:13.596Z,94803.03
2023-12-11T02:47:15.567Z,94801.06
2023-12-11T02:48:17.749Z,94795.63
2023-12-11T02:49:20.906Z,94802.25
2023-12-11T02:50:23.036Z,94807.72
2023-12-11T02:51:26.066Z,94799.22
2023-12-11T02:52:28.146Z,94798.44
2023-12-11T02:53:31.063Z,94801.94
2023-12-11T02:54:33.151Z,94809.34
2023-12-11T02:55:35.118Z,94814.81
2023-12-11T02:56:40.348Z,94819.50
2023-12-11T02:57:43.758Z,94814.81
2023-12-11T02:58:46.708Z,94818.00
2023-12-11T02:59:48.660Z,94820.38
2023-12-11T03:00:50.743Z,94818.84
2023-12-11T03:01:53.784Z,94806.75
2023-12-11T03:02:56.497Z,94817.31
2023-12-11T03:03:59.540Z,94809.56
2023-12-11T03:05:01.564Z,94820.06
2023-12-11T03:06:05.286Z,94827.47
2023-12-11T03:07:08.326Z,94836.84
2023-12-11T03:08:10.438Z,94835.31
2023-12-11T03:09:13.372Z,94828.22
2023-12-11T03:10:15.624Z,94826.25
2023-12-11T03:11:18.607Z,94827.47
2023-12-11T03:12:20.564Z,94834.03
2023-12-11T03:13:24.857Z,94833.25
2023-12-11T03:14:26.793Z,94844.81
2023-12-11T03:15:28.807Z,94839.56
2023-12-11T03:16:31.895Z,94843.06
2023-12-11T03:17:34.116Z,94839.91
2023-12-11T03:18:37.131Z,94831.38
2023-12-11T03:19:39.327Z,94830.97
2023-12-11T03:20:41.457Z,94839.16
2023-12-11T03:21:44.974Z,94839.91
2023-12-11T03:22:46.879Z,94839.91
2023-12-11T03:23:49.768Z,94849.19
2023-12-11T03:24:51.991Z,94841.44
2023-12-11T03:25:55.012Z,94838.47
2023-12-11T03:26:56.953Z,94844.47
2023-12-11T03:28:00.050Z,94838.47
2023-12-11T03:29:04.000Z,94835.41
2023-12-11T03:30:08.357Z,94842.41
2023-12-11T03:31:10.384Z,94838.81
2023-12-11T03:32:13.500Z,94834.56
2023-12-11T03:33:15.510Z,94826.69
2023-12-11T03:34:18.705Z,94838.25
2023-12-11T03:35:20.716Z,94847.75
2023-12-11T03:36:26.549Z,94846.44
2023-12-11T03:37:28.879Z,94861.63
2023-12-11T03:38:31.934Z,94857.03
2023-12-11T03:39:33.909Z,94860.41
2023-12-11T03:40:36.802Z,94861.97
2023-12-11T03:41:39.510Z,94859.25
2023-12-11T03:42:43.397Z,94845.91
2023-12-11T03:43:46.186Z,94838.50
2023-12-11T03:44:50.691Z,94828.03
2023-12-11T03:45:54.989Z,94829.53
2023-12-11T03:46:59.009Z,94825.63
2023-12-11T03:48:00.984Z,94819.84
2023-12-11T03:49:04.808Z,94825.63
2023-12-11T03:50:07.875Z,94826.38
2023-12-11T03:51:10.769Z,94821.06
2023-12-11T03:52:12.850Z,94818.63
2023-12-11T03:53:15.870Z,94825.22
2023-12-11T03:54:17.840Z,94822.47
2023-12-11T03:55:20.950Z,94820.19
2023-12-11T03:56:22.895Z,94824.00
2023-12-11T03:57:25.864Z,94831.84
2023-12-11T03:58:27.820Z,94822.91
2023-12-11T03:59:30.720Z,94824.75
2023-12-11T04:00:34.112Z,94828.69
2023-12-11T04:01:37.211Z,94824.75
2023-12-11T04:02:39.209Z,94826.28
2023-12-11T04:03:42.267Z,94823.56
2023-12-11T04:04:44.339Z,94821.59
2023-12-11T04:05:47.921Z,94816.47
2023-12-11T04:06:49.930Z,94814.50
2023-12-11T04:07:52.864Z,94810.25
2023-12-11T04:08:54.867Z,94813.31
2023-12-11T04:09:56.797Z,94810.59
2023-12-11T04:10:59.759Z,94804.69
2023-12-11T04:12:01.755Z,94809.38
2023-12-11T04:13:04.870Z,94802.72
2023-12-11T04:14:06.806Z,94806.31
2023-12-11T04:15:10.318Z,94808.94
2023-12-11T04:16:14.064Z,94820.63
2023-12-11T04:17:17.162Z,94815.94
2023-12-11T04:18:19.191Z,94818.66
2023-12-11T04:19:22.245Z,94806.97
2023-12-11T04:20:24.240Z,94817.91
2023-12-11T04:21:26.229Z,94811.69
2023-12-11T04:22:29.282Z,94824.53
2023-12-11T04:23:31.199Z,94811.78
2023-12-11T04:24:34.222Z,94818.31
2023-12-11T04:25:36.207Z,94819.09
2023-12-11T04:26:39.103Z,94815.16
2023-12-11T04:27:41.013Z,94813.00
2023-12-11T04:28:43.990Z,94814.06
2023-12-11T04:29:45.892Z,94811.34
2023-12-11T04:30:48.873Z,94813.63
2023-12-11T04:31:52.180Z,94815.16
2023-12-11T04:32:55.172Z,94817.91
2023-12-11T04:33:57.298Z,94830.31
2023-12-11T04:35:00.267Z,94819.41
2023-12-11T04:36:02.160Z,94816.25
2023-12-11T04:37:05.471Z,94812.44
2023-12-11T04:38:07.443Z,94806.97
2023-12-11T04:39:10.339Z,94812.78
2023-12-11T04:40:12.955Z,94815.50
2023-12-11T04:41:15.950Z,94804.13
2023-12-11T04:42:17.842Z,94808.84
2023-12-11T04:43:20.774Z,94811.91
2023-12-11T04:44:23.307Z,94814.63
2023-12-11T04:45:26.270Z,94814.63
2023-12-11T04:46:28.267Z,94813.44
2023-12-11T04:47:32.756Z,94809.16
2023-12-11T04:48:35.008Z,94809.50
2023-12-11T04:49:38.087Z,94807.53
2023-12-11T04:50:40.096Z,94801.31
2023-12-11T04:51:42.053Z,94811.00
2023-12-11T04:52:45.016Z,94806.34
2023-12-11T04:53:46.932Z,94803.63
2023-12-11T04:54:49.994Z,94798.91
2023-12-11T04:55:52.064Z,94793.47
2023-12-11T04:56:55.091Z,94796.94
2023-12-11T04:57:57.047Z,94781.31
2023-12-11T04:59:00.025Z,94784.06
2023-12-11T05:00:01.997Z,94775.88
2023-12-11T05:01:05.357Z,94773.94
2023-12-11T05:02:07.412Z,94766.16
2023-12-11T05:03:11.780Z,94769.66
2023-12-11T05:04:13.801Z,94758.75
2023-12-11T05:05:17.586Z,94764.19
2023-12-11T05:06:19.758Z,94760.72
2023-12-11T05:07:22.698Z,94763.44
2023-12-11T05:08:27.381Z,94763.44
2023-12-11T05:09:32.263Z,94759.16
2023-12-11T05:10:34.948Z,94751.75
2023-12-11T05:11:36.957Z,94740.84
2023-12-11T05:12:39.927Z,94740.72
2023-12-11T05:13:41.918Z,94733.28
2023-12-11T05:14:44.963Z,94732.53
2023-12-11T05:15:46.947Z,94725.09
2023-12-11T05:16:49.920Z,94729.38
2023-12-11T05:17:51.883Z,94720.44
2023-12-11T05:18:56.324Z,94720.44
2023-12-11T05:19:58.483Z,94725.09
2023-12-11T05:21:07.605Z,94725.88
2023-12-11T05:22:09.626Z,94745.00
2023-12-11T05:23:12.639Z,94753.19
2023-12-11T05:24:15.501Z,94757.09
2023-12-11T05:25:18.542Z,94758.63
2023-12-11T05:26:20.858Z,94780.47
2023-12-11T05:27:23.052Z,94785.94
2023-12-11T05:28:25.997Z,94789.84
2023-12-11T05:29:28.841Z,94790.59
2023-12-11T05:30:32.176Z,94796.84
2023-12-11T05:31:34.473Z,94790.19
2023-12-11T05:32:38.224Z,94791.72
2023-12-11T05:33:40.463Z,94785.03
2023-12-11T05:34:44.966Z,94783.53
2023-12-11T05:35:46.969Z,94791.72
2023-12-11T05:36:49.922Z,94788.19
2023-12-11T05:37:52.117Z,94784.28
2023-12-11T05:38:55.668Z,94790.50
2023-12-11T05:40:19.723Z,94779.59
2023-12-11T05:41:20.704Z,94785.03
2023-12-11T05:42:22.592Z,94780.34
2023-12-11T05:43:25.532Z,94778.06
2023-12-11T05:44:27.452Z,94782.31
2023-12-11T05:45:30.342Z,94781.09
2023-12-11T05:46:32.285Z,94770.19
2023-12-11T05:47:35.195Z,94778.81
2023-12-11T05:48:37.410Z,94767.16
2023-12-11T05:49:40.667Z,94763.97
2023-12-11T05:50:44.038Z,94755.03
2023-12-11T05:51:47.035Z,94745.31
2023-12-11T05:52:48.965Z,94746.84
2023-12-11T05:53:51.935Z,94748.81
2023-12-11T05:54:53.857Z,94735.16
2023-12-11T05:55:56.837Z,94740.16
2023-12-11T05:56:58.734Z,94733.19
2023-12-11T05:58:01.729Z,94739.88
2023-12-11T05:59:03.810Z,94739.88
2023-12-11T06:00:08.035Z,94738.31
2023-12-11T06:01:10.077Z,94728.16
2023-12-11T06:02:13.036Z,94741.38
2023-12-11T06:03:15.032Z,94739.88
2023-12-11T06:04:18.192Z,94746.84
2023-12-11T06:05:20.213Z,94746.84
2023-12-11T06:06:24.588Z,94745.63
2023-12-11T06:07:26.526Z,94752.28
2023-12-11T06:08:29.557Z,94742.91
2023-12-11T06:09:32.924Z,94742.91
2023-12-11T06:10:35.934Z,94745.94
2023-12-11T06:11:37.889Z,94751.41
2023-12-11T06:12:40.844Z,94760.38
2023-12-11T06:13:42.770Z,94763.88
2023-12-11T06:14:48.458Z,94769.31
2023-12-11T06:15:51.520Z,94770.84
2023-12-11T06:16:54.558Z,94769.66
2023-12-11T06:17:56.844Z,94769.66
2023-12-11T06:19:00.024Z,94763.00
2023-12-11T06:20:02.279Z,94762.22
2023-12-11T06:21:05.757Z,94754.81
2023-12-11T06:22:09.099Z,94746.59
2023-12-11T06:23:11.049Z,94750.09
2023-12-11T06:24:13.959Z,94750.09
2023-12-11T06:25:16.292Z,94748.16
2023-12-11T06:26:32.875Z,94753.63
2023-12-11T06:27:34.821Z,94756.34
2023-12-11T06:28:37.780Z,94744.22
2023-12-11T06:29:40.943Z,94737.53
2023-12-11T06:30:44.727Z,94727.84
2023-12-11T06:31:46.745Z,94734.03
2023-12-11T06:32:49.684Z,94723.13
2023-12-11T06:33:51.804Z,94730.13
2023-12-11T06:34:55.206Z,94730.56
2023-12-11T06:35:57.215Z,94730.13
2023-12-11T06:37:00.249Z,94736.78
2023-12-11T06:38:04.022Z,94740.25
2023-12-11T06:39:06.913Z,94742.25
2023-12-11T06:40:10.402Z,94744.22
2023-12-11T06:41:13.400Z,94766.03
2023-12-11T06:42:15.609Z,94760.59
2023-12-11T06:43:18.500Z,94759.81
2023-12-11T06:44:20.482Z,94756.34
2023-12-11T06:45:23.488Z,94758.28
2023-12-11T06:46:30.129Z,94770.00
2023-12-11T06:47:33.284Z,94770.75
2023-12-11T06:48:35.389Z,94772.72
2023-12-11T06:49:38.834Z,94767.25
2023-12-11T06:50:42.217Z,94761.81
2023-12-11T06:51:45.291Z,94760.59
2023-12-11T06:52:47.359Z,94754.38
2023-12-11T06:53:51.657Z,94760.59
2023-12-11T06:54:55.662Z,94760.59
2023-12-11T06:55:58.699Z,94766.03
2023-12-11T06:57:00.727Z,94770.75
2023-12-11T06:58:05.247Z,94766.81
2023-12-11T06:59:07.381Z,94763.31
2023-12-11T07:00:11.731Z,94752.41
2023-12-11T07:01:14.080Z,94747.69
2023-12-11T07:02:17.359Z,94743.00
2023-12-11T07:03:19.464Z,94734.81
2023-12-11T07:04:22.554Z,94734.03
2023-12-11T07:05:26.080Z,94734.03
2023-12-11T07:06:28.927Z,94741.06
2023-12-11T07:07:32.188Z,94726.63
2023-12-11T07:08:34.762Z,94730.88
2023-12-11T07:09:39.117Z,94729.34
2023-12-11T07:10:41.111Z,94729.34
2023-12-11T07:11:44.118Z,94727.41
2023-12-11T07:12:47.313Z,94723.88
2023-12-11T07:13:50.734Z,94736.34
2023-12-11T07:14:52.929Z,94735.59
2023-12-11T07:15:54.944Z,94732.88
2023-12-11T07:16:57.882Z,94729.34
2023-12-11T07:18:00.003Z,94735.59
2023-12-11T07:19:03.533Z,94727.84
2023-12-11T07:20:07.461Z,94729.34
2023-12-11T07:21:10.860Z,94741.06
2023-12-11T07:22:12.963Z,94733.63
2023-12-11T07:23:15.014Z,94740.59
2023-12-11T07:24:18.624Z,94744.53
2023-12-11T07:25:22.034Z,94746.06
2023-12-11T07:26:25.112Z,94744.09
2023-12-11T07:27:27.271Z,94750.31
2023-12-11T07:28:30.379Z,94755.78
2023-12-11T07:29:32.996Z,94751.50
2023-12-11T07:30:36.049Z,94750.31
2023-12-11T07:31:38.039Z,94744.88
2023-12-11T07:32:41.144Z,94740.16
2023-12-11T07:33:43.251Z,94739.41
2023-12-11T07:34:46.223Z,94736.69
2023-12-11T07:35:48.205Z,94732.41
2023-12-11T07:36:53.623Z,94741.25
2023-12-11T07:37:55.558Z,94726.41
2023-12-11T07:38:58.545Z,94717.44
2023-12-11T07:40:00.558Z,94719.72
2023-12-11T07:41:07.858Z,94717.00
2023-12-11T07:42:10.082Z,94715.50
2023-12-11T07:43:13.194Z,94714.28
2023-12-11T07:44:16.483Z,94721.72
2023-12-11T07:45:19.398Z,94713.53
2023-12-11T07:46:23.003Z,94715.50
2023-12-11T07:47:26.082Z,94716.69
2023-12-11T07:48:29.769Z,94700.31
2023-12-11T07:49:33.144Z,94697.00
2023-12-11T07:50:35.171Z,94688.28
2023-12-11T07:51:38.259Z,94693.69
2023-12-11T07:52:40.215Z,94701.38
2023-12-11T07:53:42.213Z,94705.50
2023-12-11T07:54:45.668Z,94712.63
2023-12-11T07:55:47.654Z,94714.84
2023-12-11T07:56:51.977Z,94717.53
2023-12-11T07:57:53.940Z,94709.25
2023-12-11T07:58:56.948Z,94709.47
2023-12-11T07:59:58.990Z,94707.28
2023-12-11T08:01:02.037Z,94691.72
2023-12-11T08:02:04.582Z,94702.28
2023-12-11T08:03:07.689Z,94698.28
2023-12-11T08:04:09.812Z,94695.44
2023-12-11T08:05:12.989Z,94693.28
2023-12-11T08:06:15.191Z,94689.59
2023-12-11T08:07:19.608Z,94680.47
2023-12-11T08:08:21.722Z,94686.78
2023-12-11T08:09:24.771Z,94693.16
2023-12-11T08:10:26.838Z,94691.31
2023-12-11T08:11:30.021Z,94685.53
2023-12-11T08:12:33.471Z,94686.41
2023-12-11T08:13:36.412Z,94676.69
2023-12-11T08:14:39.658Z,94677.88
2023-12-11T08:15:42.866Z,94674.84
2023-12-11T08:16:44.878Z,94667.84
2023-12-11T08:17:48.029Z,94671.81
2023-12-11T08:18:50.172Z,94658.59
2023-12-11T08:19:53.952Z,94656.28
2023-12-11T08:20:56.851Z,94661.75
2023-12-11T08:21:59.901Z,94653.22
2023-12-11T08:23:02.092Z,94660.22
2023-12-11T08:24:05.496Z,94663.41
2023-12-11T08:25:08.123Z,94661.88
2023-12-11T08:26:11.269Z,94663.84
2023-12-11T08:27:13.566Z,94665.81
2023-12-11T08:28:17.955Z,94672.50
2023-12-11T08:29:22.565Z,94669.75
2023-12-11T08:30:25.497Z,94670.94
2023-12-11T08:31:27.470Z,94670.94
2023-12-11T08:32:29.497Z,94664.72
2023-12-11T08:33:32.633Z,94660.81
2023-12-11T08:34:35.396Z,94662.75
2023-12-11T08:35:38.698Z,94665.47
2023-12-11T08:36:40.664Z,94656.53
2023-12-11T08:37:44.443Z,94643.63
2023-12-11T08:38:46.347Z,94651.41
2023-12-11T08:39:49.280Z,94658.84
2023-12-11T08:40:51.311Z,94662.00
2023-12-11T08:41:54.352Z,94663.53
2023-12-11T08:42:56.366Z,94665.94
2023-12-11T08:44:00.678Z,94662.00
2023-12-11T08:45:02.673Z,94667.47
2023-12-11T08:46:06.174Z,94655.34
2023-12-11T08:47:08.250Z,94657.28
2023-12-11T08:48:10.370Z,94663.53
2023-12-11T08:49:13.607Z,94659.59
2023-12-11T08:50:15.891Z,94663.84
2023-12-11T08:51:19.549Z,94668.53
2023-12-11T08:52:21.637Z,94673.25
2023-12-11T08:53:25.027Z,94664.63
2023-12-11T08:54:27.013Z,94663.06
2023-12-11T08:55:30.492Z,94661.13
2023-12-11T08:56:32.592Z,94655.66
2023-12-11T08:57:35.570Z,94659.16
2023-12-11T08:58:37.745Z,94660.34
2023-12-11T08:59:42.133Z,94657.63
2023-12-11T09:00:44.690Z,94655.66
2023-12-11T09:01:47.871Z,94666.59
2023-12-11T09:02:50.159Z,94676.28
2023-12-11T09:03:53.348Z,94682.19
2023-12-11T09:04:55.532Z,94678.69
2023-12-11T09:05:58.641Z,94678.69
2023-12-11T09:07:00.689Z,94685.38
2023-12-11T09:08:02.726Z,94690.06
2023-12-11T09:09:11.512Z,94691.59
2023-12-11T09:10:13.558Z,94688.13
2023-12-11T09:11:16.577Z,94681.44
2023-12-11T09:12:28.165Z,94687.66
2023-12-11T09:13:36.166Z,94695.09
2023-12-11T09:14:38.223Z,94697.81
2023-12-11T09:15:42.672Z,94706.00
2023-12-11T09:16:44.996Z,94700.13
2023-12-11T09:17:49.130Z,94707.56
2023-12-11T09:18:51.343Z,94705.59
2023-12-11T09:19:56.011Z,94715.75
2023-12-11T09:20:58.491Z,94721.22
2023-12-11T09:22:01.560Z,94720.44
2023-12-11T09:23:03.546Z,94729.41
2023-12-11T09:24:07.322Z,94710.28
2023-12-11T09:25:10.125Z,94700.13
2023-12-11T09:26:13.141Z,94688.44
2023-12-11T09:27:15.123Z,94677.50
2023-12-11T09:28:18.203Z,94680.25
2023-12-11T09:29:20.211Z,94691.94
2023-12-11T09:30:23.294Z,94716.50
2023-12-11T09:31:26.648Z,94721.50
2023-12-11T09:32:29.995Z,94703.94
2023-12-11T09:33:32.755Z,94693.00
2023-12-11T09:34:36.003Z,94686.78
2023-12-11T09:35:38.382Z,94682.09
2023-12-11T09:36:41.409Z,94670.41
2023-12-11T09:37:44.128Z,94667.22
2023-12-11T09:38:47.100Z,94651.59
2023-12-11T09:39:50.088Z,94639.13
2023-12-11T09:40:53.184Z,94645.34
2023-12-11T09:41:55.863Z,94629.75
2023-12-11T09:44:54.423Z,94642.19
2023-12-11T09:45:57.696Z,94638.72
2023-12-11T09:47:10.473Z,94621.84
2023-12-11T09:48:15.104Z,94635.06
2023-12-11T09:49:19.029Z,94631.16
2023-12-11T09:50:23.694Z,94639.78
2023-12-11T09:51:28.166Z,94638.13
2023-12-11T09:52:30.583Z,94638.13
2023-12-11T09:53:36.571Z,94627.97
2023-12-11T09:54:38.747Z,94625.56
2023-12-11T09:55:42.739Z,94610.69
2023-12-11T09:56:45.181Z,94613.44
2023-12-11T09:57:49.301Z,94607.19
2023-12-11T09:58:52.084Z,94620.84
2023-12-11T09:59:55.463Z,94619.19
2023-12-11T10:01:02.315Z,94630.56
2023-12-11T10:02:13.474Z,94645.75
2023-12-11T10:03:16.997Z,94650.78
2023-12-11T10:04:20.036Z,94666.72
2023-12-11T10:05:26.086Z,94672.19
2023-12-11T10:06:29.361Z,94678.41
2023-12-11T10:07:31.792Z,94682.22
2023-12-11T10:08:42.148Z,94690.44
2023-12-11T10:09:44.157Z,94690.00
2023-12-11T10:10:47.072Z,94700.13
2023-12-11T10:11:58.982Z,94709.56
2023-12-11T10:13:03.075Z,94707.56
2023-12-11T10:14:12.087Z,94703.75
2023-12-11T10:15:19.799Z,94705.28
2023-12-11T10:16:30.383Z,94697.88
2023-12-11T10:17:34.367Z,94702.88
2023-12-11T10:18:50.264Z,94701.34
2023-12-11T10:19:53.222Z,94693.16
2023-12-11T10:20:58.729Z,94698.63
2023-12-11T10:22:01.903Z,94690.44
2023-12-11T10:23:16.175Z,94687.69
2023-12-11T10:24:18.501Z,94686.47
2023-12-11T10:25:25.373Z,94690.00
2023-12-11T10:26:28.968Z,94682.88
2023-12-11T10:27:31.163Z,94689.09
2023-12-11T10:28:34.829Z,94685.59
2023-12-11T10:29:37.489Z,94682.56
2023-12-11T10:30:57.109Z,94671.94
2023-12-11T10:32:02.904Z,94683.63
2023-12-11T10:33:07.474Z,94689.84
2023-12-11T10:34:09.941Z,94678.16
2023-12-11T10:35:24.837Z,94680.47
2023-12-11T10:36:26.985Z,94677.72
2023-12-11T10:37:32.954Z,94684.28
2023-12-11T10:38:35.308Z,94676.50
2023-12-11T10:39:38.289Z,94676.06
2023-12-11T10:40:41.494Z,94664.69
2023-12-11T10:41:46.737Z,94665.47
2023-12-11T10:42:57.387Z,94674.09
2023-12-11T10:44:12.027Z,94663.50
2023-12-11T10:45:19.240Z,94663.50
2023-12-11T10:46:22.583Z,94664.69
2023-12-11T10:47:24.999Z,94655.09
2023-12-11T10:48:29.484Z,94653.44
2023-12-11T10:49:31.849Z,94653.75
2023-12-11T10:50:35.875Z,94632.69
2023-12-11T10:51:38.365Z,94634.94
2023-12-11T10:52:43.802Z,94638.91
2023-12-11T10:53:45.970Z,94649.81
2023-12-11T10:54:48.917Z,94643.59
2023-12-11T10:55:52.762Z,94640.41
2023-12-11T10:56:56.818Z,94641.16
2023-12-11T10:57:59.320Z,94650.91
2023-12-11T10:59:02.905Z,94657.13
2023-12-11T11:00:06.267Z,94664.13
2023-12-11T11:01:13.448Z,94666.06
2023-12-11T11:02:18.662Z,94666.53
2023-12-11T11:03:25.540Z,94684.44
2023-12-11T11:04:33.510Z,94685.22
2023-12-11T11:05:37.473Z,94684.13
2023-12-11T11:06:48.025Z,94678.66
2023-12-11T11:07:59.064Z,94668.81
2023-12-11T11:09:05.478Z,94685.09
2023-12-11T11:10:13.046Z,94701.06
2023-12-11T11:11:25.915Z,94689.47
2023-12-11T11:12:39.851Z,94687.81
2023-12-11T11:14:06.977Z,94687.81
2023-12-11T11:15:11.117Z,94684.66
2023-12-11T11:16:13.095Z,94688.25
2023-12-11T11:17:17.727Z,94694.81
2023-12-11T11:18:19.831Z,94702.13
2023-12-11T11:19:22.957Z,94688.91
2023-12-11T11:20:26.633Z,94688.72
2023-12-11T11:21:29.506Z,94681.47
2023-12-11T11:22:36.361Z,94676.66
2023-12-11T11:23:47.522Z,94683.66
2023-12-11T11:24:49.658Z,94673.50
2023-12-11T11:25:54.842Z,94667.25
2023-12-11T11:27:02.237Z,94651.63
2023-12-11T11:28:04.974Z,94640.69
2023-12-11T11:29:07.990Z,94636.06
2023-12-11T11:30:11.311Z,94636.34
2023-12-11T11:31:23.181Z,94627.56
2023-12-11T11:32:53.927Z,94640.78
2023-12-11T11:33:58.275Z,94633.59
2023-12-11T11:35:01.530Z,94638.97
2023-12-11T11:36:05.434Z,94650.22
2023-12-11T11:37:07.766Z,94662.66
2023-12-11T11:38:10.617Z,94664.22
2023-12-11T11:39:13.462Z,94674.34
2023-12-11T11:40:15.971Z,94689.22
2023-12-11T11:41:26.045Z,94685.41
2023-12-11T11:42:30.340Z,94692.41
2023-12-11T11:43:32.254Z,94681.38
2023-12-11T11:44:35.324Z,94680.63
2023-12-11T11:45:37.380Z,94676.31
2023-12-11T11:46:50.174Z,94677.88
2023-12-11T11:47:53.774Z,94664.22
2023-12-11T11:48:55.805Z,94673.19
2023-12-11T11:50:06.039Z,94669.69
2023-12-11T11:51:09.379Z,94674.34
2023-12-11T11:52:13.728Z,94668.56
2023-12-11T11:53:18.426Z,94667.78
2023-12-11T11:54:23.932Z,94675.25
2023-12-11T11:55:28.612Z,94670.84
2023-12-11T11:56:30.889Z,94669.69
2023-12-11T11:57:34.464Z,94672.34
2023-12-11T11:58:46.370Z,94661.25
2023-12-11T11:59:49.241Z,94661.13
2023-12-11T12:00:51.250Z,94669.00
2023-12-11T12:01:55.537Z,94675.91
2023-12-11T12:02:57.708Z,94675.16
2023-12-11T12:03:59.849Z,94676.00
2023-12-11T12:05:10.969Z,94675.16
2023-12-11T12:06:18.474Z,94669.13
2023-12-11T12:07:21.787Z,94667.47
2023-12-11T12:08:23.779Z,94675.16
2023-12-11T12:09:27.586Z,94684.78
2023-12-11T12:10:30.045Z,94692.97
2023-12-11T12:11:35.026Z,94701.50
2023-12-11T12:12:37.938Z,94697.22
2023-12-11T12:13:39.985Z,94691.63
2023-12-11T12:14:42.215Z,94695.59
2023-12-11T12:15:46.094Z,94692.41
2023-12-11T12:16:48.392Z,94687.59
2023-12-11T12:17:52.024Z,94676.66
2023-12-11T12:18:54.175Z,94666.50
2023-12-11T12:19:58.820Z,94654.81
2023-12-11T12:21:04.087Z,94640.16
2023-12-11T12:22:10.332Z,94642.56
2023-12-11T12:23:12.313Z,94638.97
2023-12-11T12:24:14.289Z,94651.41
2023-12-11T12:25:17.909Z,94646.25
2023-12-11T12:26:20.028Z,94655.03
2023-12-11T12:27:26.847Z,94663.56
2023-12-11T12:28:28.896Z,94660.81